Time;durP1;ratioP1;P1;durP2;ratioP2;P2;SDS_P1;SDS_P2;PMS_P1;PMS_P2;Temp;Humidity;BMP_temperature;BMP_pressure;BME280_temperature;BME280_humidity;BME280_pressure;Samples;Min_cycle;Max_cycle;Signal;HPM_P1;HPM_P2
2021/09/22 00:00:21;;;;;;;25.13;13.07;;;;;;;;;;5024900;28;20026;-86
2021/09/22 00:02:47;;;;;;;22.83;14.07;;;;;;;;;;5026085;28;20026;-85
2021/09/22 00:05:13;;;;;;;21.33;13.48;;;;;;;;;;5024923;28;20054;-86
2021/09/22 00:07:39;;;;;;;25.50;13.52;;;;;;;;;;5024885;28;20081;-85
2021/09/22 00:10:07;;;;;;;23.13;12.95;;;;;;;;;;5025411;28;20026;-86
2021/09/22 00:12:33;;;;;;;23.27;13.45;;;;;;;;;;5026208;28;20029;-86
2021/09/22 00:14:58;;;;;;;25.98;13.65;;;;;;;;;;5027340;28;20026;-86
2021/09/22 00:17:24;;;;;;;21.83;13.45;;;;;;;;;;5026456;28;20027;-85
2021/09/22 00:19:49;;;;;;;24.10;12.70;;;;;;;;;;5027655;28;20028;-86
2021/09/22 00:22:15;;;;;;;25.77;13.02;;;;;;;;;;5027900;28;20065;-86
2021/09/22 00:24:40;;;;;;;21.20;13.32;;;;;;;;;;5026305;28;20065;-85
2021/09/22 00:27:46;;;;;;;22.33;13.40;;;;;;;;;;5027422;28;20060;-85
2021/09/22 00:30:12;;;;;;;26.10;13.85;;;;;;;;;;5022334;28;20097;-85
2021/09/22 00:32:37;;;;;;;28.10;14.57;;;;;;;;;;5027283;28;20033;-86
2021/09/22 00:35:04;;;;;;;23.85;13.35;;;;;;;;;;5026266;28;20029;-85
2021/09/22 00:37:30;;;;;;;23.50;14.18;;;;;;;;;;5026023;28;20041;-86
2021/09/22 00:39:55;;;;;;;27.05;15.93;;;;;;;;;;5007572;28;20030;-85
2021/09/22 00:42:21;;;;;;;28.90;15.70;;;;;;;;;;5025623;28;20393;-85
2021/09/22 00:44:53;;;;;;;29.83;14.85;;;;;;;;;;5025235;28;20017;-85
2021/09/22 00:47:20;;;;;;;25.85;14.00;;;;;;;;;;5024826;28;20022;-85
2021/09/22 00:49:45;;;;;;;28.98;15.45;;;;;;;;;;5024105;28;20026;-86
2021/09/22 00:52:15;;;;;;;27.48;14.95;;;;;;;;;;5024341;28;20033;-85
2021/09/22 00:54:41;;;;;;;28.08;14.73;;;;;;;;;;5007164;28;20018;-86
2021/09/22 00:57:07;;;;;;;26.77;15.50;;;;;;;;;;5026235;28;20036;-86
2021/09/22 00:59:33;;;;;;;30.35;15.80;;;;;;;;;;5010957;28;20026;-86
2021/09/22 01:01:59;;;;;;;25.63;14.68;;;;;;;;;;5009360;28;20033;-85
2021/09/22 01:04:24;;;;;;;26.77;14.98;;;;;;;;;;5026136;28;20068;-86
2021/09/22 01:06:49;;;;;;;24.02;14.35;;;;;;;;;;5025695;28;20061;-85
2021/09/22 01:09:16;;;;;;;25.40;13.35;;;;;;;;;;5024989;28;20022;-86
2021/09/22 01:11:42;;;;;;;22.17;13.00;;;;;;;;;;5025390;28;20083;-86
2021/09/22 01:14:07;;;;;;;27.30;14.30;;;;;;;;;;5024862;28;20038;-86
2021/09/22 01:16:40;;;;;;;27.55;14.65;;;;;;;;;;5025379;28;20110;-85
2021/09/22 01:19:05;;;;;;;26.02;14.73;;;;;;;;;;5024048;28;20022;-85
2021/09/22 01:21:31;;;;;;;21.88;13.18;;;;;;;;;;5022818;28;20037;-86
2021/09/22 01:23:56;;;;;;;31.58;14.55;;;;;;;;;;5023080;28;20091;-85
2021/09/22 01:26:21;;;;;;;28.35;15.85;;;;;;;;;;5024436;28;20022;-85
2021/09/22 01:28:47;;;;;;;31.20;16.58;;;;;;;;;;5006702;28;20029;-85
2021/09/22 01:31:12;;;;;;;29.33;15.50;;;;;;;;;;5023890;28;20033;-85
2021/09/22 01:33:38;;;;;;;26.02;15.35;;;;;;;;;;5024563;28;20041;-85
2021/09/22 01:36:03;;;;;;;28.60;14.43;;;;;;;;;;5023937;28;20144;-86
2021/09/22 01:38:29;;;;;;;23.92;14.30;;;;;;;;;;5024095;28;20022;-85
2021/09/22 01:41:01;;;;;;;22.02;14.05;;;;;;;;;;5024527;28;20025;-85
2021/09/22 01:43:28;;;;;;;29.60;15.68;;;;;;;;;;5024376;28;20049;-86
2021/09/22 01:45:54;;;;;;;25.77;14.52;;;;;;;;;;5024328;28;20022;-84
2021/09/22 01:48:19;;;;;;;22.80;14.13;;;;;;;;;;5024078;28;20508;-86
2021/09/22 01:50:45;;;;;;;29.75;16.73;;;;;;;;;;5023298;28;20026;-86
2021/09/22 01:53:11;;;;;;;24.98;14.70;;;;;;;;;;5022680;28;20025;-86
2021/09/22 01:55:36;;;;;;;25.58;15.10;;;;;;;;;;5022804;28;20101;-86
2021/09/22 01:58:02;;;;;;;30.83;16.30;;;;;;;;;;5006022;28;20018;-85
2021/09/22 02:00:28;;;;;;;34.20;16.23;;;;;;;;;;5024042;28;20029;-86
2021/09/22 02:02:53;;;;;;;33.85;18.42;;;;;;;;;;5024089;28;20393;-85
2021/09/22 02:05:19;;;;;;;38.25;19.17;;;;;;;;;;5023598;28;20396;-87
2021/09/22 02:07:44;;;;;;;30.42;17.73;;;;;;;;;;5025914;28;20030;-86
2021/09/22 02:10:10;;;;;;;31.23;17.70;;;;;;;;;;5028977;28;20025;-86
2021/09/22 02:12:35;;;;;;;35.47;18.58;;;;;;;;;;5028775;28;20044;-87
2021/09/22 02:15:01;;;;;;;44.20;19.27;;;;;;;;;;5034958;28;20060;-85
2021/09/22 02:17:26;;;;;;;39.03;18.95;;;;;;;;;;5030891;28;20121;-87
2021/09/22 02:19:51;;;;;;;33.45;17.35;;;;;;;;;;5030633;28;20025;-86
2021/09/22 02:22:17;;;;;;;35.33;17.60;;;;;;;;;;5011804;28;20064;-85
2021/09/22 02:24:43;;;;;;;53.17;20.05;;;;;;;;;;5028751;28;20022;-86
2021/09/22 02:27:12;;;;;;;34.47;18.60;;;;;;;;;;5029850;28;20032;-86
2021/09/22 02:29:38;;;;;;;42.63;20.60;;;;;;;;;;5030138;28;20129;-86
2021/09/22 02:32:04;;;;;;;34.92;18.63;;;;;;;;;;5009816;28;20444;-86
2021/09/22 02:34:30;;;;;;;35.70;17.75;;;;;;;;;;5029274;28;20017;-85
2021/09/22 02:36:55;;;;;;;31.05;17.13;;;;;;;;;;5011454;28;20031;-86
2021/09/22 02:39:21;;;;;;;32.28;18.55;;;;;;;;;;5029137;28;20512;-86
2021/09/22 02:41:46;;;;;;;34.60;16.92;;;;;;;;;;5011784;28;20030;-86
2021/09/22 02:44:12;;;;;;;36.55;17.95;;;;;;;;;;5028533;28;20022;-86
2021/09/22 02:46:37;;;;;;;35.30;19.27;;;;;;;;;;5028384;28;20030;-85
2021/09/22 02:49:03;;;;;;;33.58;18.08;;;;;;;;;;5010835;28;20095;-87
2021/09/22 02:51:28;;;;;;;33.60;18.60;;;;;;;;;;5027668;28;20479;-86
2021/09/22 02:53:54;;;;;;;34.90;17.00;;;;;;;;;;5028093;28;20022;-85
2021/09/22 02:56:19;;;;;;;32.00;17.83;;;;;;;;;;5028357;28;20081;-85
2021/09/22 02:58:45;;;;;;;33.90;18.77;;;;;;;;;;5009839;28;20041;-85
2021/09/22 03:01:10;;;;;;;35.83;19.30;;;;;;;;;;5027131;28;20026;-84
2021/09/22 03:03:35;;;;;;;33.28;19.50;;;;;;;;;;5009508;28;20032;-86
2021/09/22 03:06:01;;;;;;;36.58;20.13;;;;;;;;;;5027614;28;20026;-86
2021/09/22 03:08:26;;;;;;;38.42;21.25;;;;;;;;;;5026522;28;20030;-85
2021/09/22 03:10:52;;;;;;;45.08;21.83;;;;;;;;;;5027746;28;20052;-87
2021/09/22 03:13:18;;;;;;;42.45;23.08;;;;;;;;;;5030967;28;20041;-87
2021/09/22 03:15:43;;;;;;;45.75;23.35;;;;;;;;;;5028752;28;20018;-86
2021/09/22 03:18:08;;;;;;;43.05;23.02;;;;;;;;;;5011530;28;20596;-85
2021/09/22 03:20:34;;;;;;;44.85;23.38;;;;;;;;;;5027771;28;20030;-86
2021/09/22 03:22:59;;;;;;;46.05;23.30;;;;;;;;;;5027721;28;20022;-86
2021/09/22 03:25:25;;;;;;;47.30;24.33;;;;;;;;;;5027149;28;20052;-86
2021/09/22 03:27:51;;;;;;;51.80;24.65;;;;;;;;;;5027448;28;20041;-86
2021/09/22 03:30:16;;;;;;;48.63;25.40;;;;;;;;;;5028420;28;20040;-86
2021/09/22 03:32:42;;;;;;;47.38;21.90;;;;;;;;;;5027753;28;20089;-86
2021/09/22 03:35:08;;;;;;;43.08;23.40;;;;;;;;;;5026216;28;20030;-85
2021/09/22 03:37:34;;;;;;;41.95;21.25;;;;;;;;;;5025917;28;20037;-86
2021/09/22 03:39:59;;;;;;;42.63;22.63;;;;;;;;;;5025468;28;20030;-85
2021/09/22 03:42:25;;;;;;;43.05;21.13;;;;;;;;;;5026002;28;20029;-85
2021/09/22 03:44:50;;;;;;;42.95;22.00;;;;;;;;;;5024444;28;20029;-85
2021/09/22 03:47:16;;;;;;;44.03;20.33;;;;;;;;;;5023894;28;20022;-85
2021/09/22 03:49:41;;;;;;;44.13;20.73;;;;;;;;;;5008163;28;20037;-86
2021/09/22 03:52:06;;;;;;;47.97;22.95;;;;;;;;;;5026959;28;20515;-86
2021/09/22 03:54:32;;;;;;;44.80;21.05;;;;;;;;;;5026123;28;20125;-86
2021/09/22 03:56:58;;;;;;;36.63;20.40;;;;;;;;;;5027294;28;20060;-86
2021/09/22 03:59:23;;;;;;;46.33;21.60;;;;;;;;;;5026704;28;20026;-86
2021/09/22 04:01:48;;;;;;;42.72;21.33;;;;;;;;;;5025985;28;20404;-85
2021/09/22 04:04:14;;;;;;;40.30;20.67;;;;;;;;;;5025297;28;20488;-86
2021/09/22 04:06:39;;;;;;;45.92;21.02;;;;;;;;;;5007476;28;20056;-85
2021/09/22 04:09:08;;;;;;;39.28;20.83;;;;;;;;;;5024523;28;20389;-85
2021/09/22 04:11:33;;;;;;;38.22;20.83;;;;;;;;;;5026769;28;20022;-85
2021/09/22 04:13:59;;;;;;;47.67;21.73;;;;;;;;;;5026303;28;20034;-85
2021/09/22 04:16:24;;;;;;;46.28;20.58;;;;;;;;;;5026656;28;20410;-85
2021/09/22 04:18:50;;;;;;;41.83;20.95;;;;;;;;;;5026498;28;20022;-86
2021/09/22 04:21:15;;;;;;;43.28;20.60;;;;;;;;;;5026634;28;20017;-85
2021/09/22 04:23:41;;;;;;;42.38;21.20;;;;;;;;;;5007597;28;20030;-85
2021/09/22 04:26:06;;;;;;;44.88;21.80;;;;;;;;;;5008304;28;20026;-86
2021/09/22 04:28:31;;;;;;;43.63;20.98;;;;;;;;;;5024580;28;20088;-86
2021/09/22 04:30:57;;;;;;;48.67;22.52;;;;;;;;;;5024231;28;20037;-85
2021/09/22 04:33:22;;;;;;;45.97;21.15;;;;;;;;;;5024440;28;20081;-85
2021/09/22 04:35:48;;;;;;;44.53;20.10;;;;;;;;;;5024373;28;20105;-84
2021/09/22 04:38:13;;;;;;;53.90;21.20;;;;;;;;;;5024572;28;20032;-85
2021/09/22 04:40:39;;;;;;;39.85;20.77;;;;;;;;;;5023960;28;20026;-85
2021/09/22 04:43:04;;;;;;;40.75;20.42;;;;;;;;;;5023859;28;20026;-85
2021/09/22 04:45:30;;;;;;;47.67;21.45;;;;;;;;;;5025688;28;20130;-84
2021/09/22 04:47:57;;;;;;;51.90;20.65;;;;;;;;;;5027584;28;20100;-84
2021/09/22 04:50:23;;;;;;;46.47;20.80;;;;;;;;;;5025865;28;20088;-84
2021/09/22 04:52:49;;;;;;;39.10;20.83;;;;;;;;;;5024990;28;20053;-86
2021/09/22 04:55:15;;;;;;;37.00;19.55;;;;;;;;;;5024701;28;20078;-85
2021/09/22 04:57:41;;;;;;;44.30;22.02;;;;;;;;;;5024867;28;20037;-84
2021/09/22 05:00:07;;;;;;;39.42;20.70;;;;;;;;;;5024509;28;20078;-85
2021/09/22 05:02:34;;;;;;;39.70;17.85;;;;;;;;;;5007571;28;20022;-85
2021/09/22 05:04:59;;;;;;;36.40;18.50;;;;;;;;;;5024021;28;20105;-84
2021/09/22 05:07:25;;;;;;;41.67;19.30;;;;;;;;;;5025281;28;20053;-84
2021/09/22 05:09:50;;;;;;;41.60;19.75;;;;;;;;;;5007768;28;20057;-84
2021/09/22 05:12:16;;;;;;;48.83;21.23;;;;;;;;;;5007486;28;20024;-84
2021/09/22 05:14:41;;;;;;;56.13;24.92;;;;;;;;;;5005154;28;20026;-85
2021/09/22 05:17:07;;;;;;;40.00;20.10;;;;;;;;;;5006247;28;20033;-84
2021/09/22 05:19:32;;;;;;;39.80;20.80;;;;;;;;;;5022769;28;20029;-83
2021/09/22 05:21:58;;;;;;;45.65;23.30;;;;;;;;;;4998753;28;20470;-84
2021/09/22 05:24:24;;;;;;;43.78;20.98;;;;;;;;;;5014774;28;20452;-84
2021/09/22 05:26:49;;;;;;;41.70;21.10;;;;;;;;;;5026672;28;20025;-84
2021/09/22 05:29:15;;;;;;;43.47;21.88;;;;;;;;;;5010688;28;20108;-85
2021/09/22 05:31:40;;;;;;;46.55;21.85;;;;;;;;;;5036791;28;20025;-85
2021/09/22 05:34:06;;;;;;;45.95;22.55;;;;;;;;;;5036693;28;20123;-85
2021/09/22 05:36:31;;;;;;;41.17;20.52;;;;;;;;;;5033453;28;20037;-84
2021/09/22 05:38:57;;;;;;;56.42;21.95;;;;;;;;;;4987011;28;20173;-84
2021/09/22 05:41:22;;;;;;;44.92;22.15;;;;;;;;;;5014556;28;20033;-84
2021/09/22 05:43:47;;;;;;;47.45;22.10;;;;;;;;;;5016269;28;20036;-84
2021/09/22 05:46:13;;;;;;;46.42;22.00;;;;;;;;;;5016097;28;20052;-84
2021/09/22 05:48:38;;;;;;;52.75;24.70;;;;;;;;;;5016062;28;20025;-83
2021/09/22 05:51:05;;;;;;;47.83;25.02;;;;;;;;;;5015368;28;20515;-83
2021/09/22 05:53:30;;;;;;;50.55;25.10;;;;;;;;;;5003210;28;20497;-84
2021/09/22 05:55:56;;;;;;;51.05;24.10;;;;;;;;;;4998975;28;20021;-84
2021/09/22 05:58:21;;;;;;;45.45;24.15;;;;;;;;;;5015627;28;20006;-84
2021/09/22 06:00:47;;;;;;;46.08;23.23;;;;;;;;;;4999168;28;20033;-85
2021/09/22 06:03:13;;;;;;;53.40;25.40;;;;;;;;;;4999028;28;20018;-85
2021/09/22 06:05:41;;;;;;;61.00;27.85;;;;;;;;;;4998058;28;20036;-86
2021/09/22 06:08:07;;;;;;;57.28;26.33;;;;;;;;;;5016273;28;20022;-85
2021/09/22 06:10:33;;;;;;;60.55;27.65;;;;;;;;;;4998315;28;20022;-84
2021/09/22 06:12:59;;;;;;;69.78;30.50;;;;;;;;;;5015745;28;20030;-84
2021/09/22 06:15:24;;;;;;;71.03;29.25;;;;;;;;;;5015464;28;20044;-84
2021/09/22 06:17:50;;;;;;;81.38;28.45;;;;;;;;;;5015369;28;20033;-83
2021/09/22 06:20:16;;;;;;;63.88;27.83;;;;;;;;;;4998326;28;20022;-84
2021/09/22 06:22:41;;;;;;;62.03;28.05;;;;;;;;;;5015725;28;20032;-84
2021/09/22 06:25:07;;;;;;;65.07;26.27;;;;;;;;;;5015291;28;20217;-84
2021/09/22 06:27:33;;;;;;;59.45;27.02;;;;;;;;;;5015220;28;20109;-83
2021/09/22 06:29:58;;;;;;;69.70;27.63;;;;;;;;;;5015332;28;20058;-83
2021/09/22 06:32:23;;;;;;;67.88;27.80;;;;;;;;;;5015143;28;20036;-83
2021/09/22 06:34:49;;;;;;;56.20;25.75;;;;;;;;;;4997905;28;20121;-83
2021/09/22 06:37:14;;;;;;;57.45;26.50;;;;;;;;;;4997044;28;20143;-84
2021/09/22 06:39:39;;;;;;;65.20;26.20;;;;;;;;;;4997281;28;20125;-84
2021/09/22 06:42:05;;;;;;;60.40;24.42;;;;;;;;;;4998091;28;20026;-84
2021/09/22 06:44:30;;;;;;;55.72;25.23;;;;;;;;;;5014126;28;20021;-83
2021/09/22 06:46:56;;;;;;;52.70;25.25;;;;;;;;;;5016208;28;20022;-82
2021/09/22 06:49:21;;;;;;;57.75;24.67;;;;;;;;;;5017486;22;20033;-85
2021/09/22 06:51:46;;;;;;;65.00;27.38;;;;;;;;;;5035975;28;20040;-85
2021/09/22 06:54:12;;;;;;;64.35;26.70;;;;;;;;;;5054857;28;20112;-83
2021/09/22 06:56:37;;;;;;;63.92;29.65;;;;;;;;;;5039434;28;20021;-84
2021/09/22 06:59:02;;;;;;;62.38;28.25;;;;;;;;;;5056729;28;20078;-83
2021/09/22 07:01:27;;;;;;;73.65;28.75;;;;;;;;;;5019463;28;20040;-85
2021/09/22 07:03:53;;;;;;;57.65;26.73;;;;;;;;;;5042422;28;20079;-85
2021/09/22 07:06:18;;;;;;;66.40;27.98;;;;;;;;;;5039815;28;20035;-84
2021/09/22 07:08:43;;;;;;;64.60;29.77;;;;;;;;;;5038219;28;20555;-86
2021/09/22 07:11:09;;;;;;;71.50;32.35;;;;;;;;;;5038425;28;20044;-85
2021/09/22 07:13:36;;;;;;;76.47;32.70;;;;;;;;;;5038172;28;20026;-84
2021/09/22 07:16:02;;;;;;;68.35;32.25;;;;;;;;;;5033282;28;20021;-84
2021/09/22 07:18:28;;;;;;;73.40;32.72;;;;;;;;;;5038179;28;20049;-83
2021/09/22 07:20:53;;;;;;;72.70;35.00;;;;;;;;;;5037268;28;20480;-84
2021/09/22 07:23:18;;;;;;;85.55;36.30;;;;;;;;;;5036789;28;20029;-84
2021/09/22 07:25:44;;;;;;;78.30;34.40;;;;;;;;;;5036566;28;20048;-84
2021/09/22 07:28:10;;;;;;;71.88;34.78;;;;;;;;;;5038294;28;20045;-84
2021/09/22 07:30:35;;;;;;;73.50;35.00;;;;;;;;;;5037711;28;20068;-84
2021/09/22 07:33:01;;;;;;;88.30;36.55;;;;;;;;;;5039140;28;20018;-84
2021/09/22 07:35:27;;;;;;;79.55;36.15;;;;;;;;;;5035555;28;20501;-85
2021/09/22 07:37:53;;;;;;;89.07;34.35;;;;;;;;;;5019374;28;20405;-84
2021/09/22 07:40:18;;;;;;;82.28;34.92;;;;;;;;;;5016347;28;20112;-84
2021/09/22 07:42:44;;;;;;;84.57;39.55;;;;;;;;;;5031974;28;20022;-84
2021/09/22 07:45:11;;;;;;;80.95;36.38;;;;;;;;;;5016712;28;20038;-84
2021/09/22 07:47:37;;;;;;;81.35;37.05;;;;;;;;;;5030294;28;20046;-84
2021/09/22 07:50:05;;;;;;;70.85;34.55;;;;;;;;;;5029685;28;20025;-83
2021/09/22 07:52:31;;;;;;;76.18;37.05;;;;;;;;;;5021381;28;20021;-85
2021/09/22 07:54:56;;;;;;;80.35;36.20;;;;;;;;;;5026785;28;20015;-84
2021/09/22 07:57:22;;;;;;;76.05;35.00;;;;;;;;;;5013689;28;20030;-84
2021/09/22 07:59:47;;;;;;;79.80;35.25;;;;;;;;;;4999361;28;20504;-84
2021/09/22 08:02:13;;;;;;;88.45;37.13;;;;;;;;;;5016472;28;20504;-83
2021/09/22 08:04:38;;;;;;;83.90;37.13;;;;;;;;;;4999012;28;20041;-84
2021/09/22 08:07:03;;;;;;;80.50;36.63;;;;;;;;;;5016040;28;20022;-83
2021/09/22 08:09:30;;;;;;;77.43;36.25;;;;;;;;;;4998546;28;20029;-84
2021/09/22 08:11:55;;;;;;;74.45;34.60;;;;;;;;;;5022242;28;20025;-84
2021/09/22 08:14:21;;;;;;;79.38;36.20;;;;;;;;;;5020783;28;20028;-85
2021/09/22 08:16:46;;;;;;;74.28;36.38;;;;;;;;;;5017907;28;20053;-84
2021/09/22 08:19:12;;;;;;;98.82;38.10;;;;;;;;;;5023569;28;20029;-85
2021/09/22 08:21:38;;;;;;;77.97;36.92;;;;;;;;;;5037588;28;20109;-84
2021/09/22 08:24:03;;;;;;;81.72;37.35;;;;;;;;;;5036741;28;20061;-85
2021/09/22 08:26:29;;;;;;;78.65;37.72;;;;;;;;;;5019005;28;20032;-84
2021/09/22 08:28:55;;;;;;;72.35;35.95;;;;;;;;;;5018435;28;20061;-84
2021/09/22 08:31:20;;;;;;;74.93;36.55;;;;;;;;;;5035614;28;20018;-85
2021/09/22 08:33:46;;;;;;;82.40;36.13;;;;;;;;;;5018312;28;20545;-84
2021/09/22 08:36:12;;;;;;;68.47;36.03;;;;;;;;;;5035644;28;20025;-84
2021/09/22 08:38:37;;;;;;;73.60;36.83;;;;;;;;;;5003195;28;20041;-84
2021/09/22 08:41:04;;;;;;;69.57;35.35;;;;;;;;;;5015611;28;20398;-85
2021/09/22 08:43:30;;;;;;;70.82;36.05;;;;;;;;;;5016556;28;20029;-84
2021/09/22 08:45:55;;;;;;;75.22;36.08;;;;;;;;;;4998660;28;20032;-85
2021/09/22 08:48:24;;;;;;;69.00;36.35;;;;;;;;;;5015042;28;20397;-84
2021/09/22 08:50:49;;;;;;;72.95;38.78;;;;;;;;;;5015898;28;20026;-85
2021/09/22 08:53:15;;;;;;;73.57;36.67;;;;;;;;;;4998504;28;20028;-85
2021/09/22 08:55:40;;;;;;;76.65;38.42;;;;;;;;;;5016950;28;20026;-84
2021/09/22 08:58:05;;;;;;;67.20;36.08;;;;;;;;;;4999751;28;20474;-84
2021/09/22 09:00:32;;;;;;;70.28;36.47;;;;;;;;;;5016904;28;20030;-85
2021/09/22 09:02:58;;;;;;;74.13;37.90;;;;;;;;;;4998720;28;20029;-85
2021/09/22 09:05:23;;;;;;;68.25;35.42;;;;;;;;;;5016422;28;20026;-85
2021/09/22 09:07:57;;;;;;;71.45;37.50;;;;;;;;;;5000743;28;20025;-84
2021/09/22 09:10:29;;;;;;;67.68;36.40;;;;;;;;;;4998012;28;20026;-84
2021/09/22 09:13:07;;;;;;;65.47;35.17;;;;;;;;;;4997908;28;20037;-84
2021/09/22 09:15:39;;;;;;;71.97;35.58;;;;;;;;;;4998434;28;20030;-85
2021/09/22 09:18:20;;;;;;;65.53;35.35;;;;;;;;;;5016854;28;20045;-85
2021/09/22 09:20:52;;;;;;;74.47;36.08;;;;;;;;;;5016682;28;20021;-86
2021/09/22 09:23:19;;;;;;;67.32;34.92;;;;;;;;;;5004732;28;20025;-84
2021/09/22 09:26:01;;;;;;;64.18;35.20;;;;;;;;;;5021200;28;20083;-84
2021/09/22 09:28:33;;;;;;;71.30;36.15;;;;;;;;;;5000686;28;20080;-85
2021/09/22 09:31:05;;;;;;;70.57;36.38;;;;;;;;;;5024280;28;20060;-85
2021/09/22 09:33:35;;;;;;;62.15;34.53;;;;;;;;;;5008168;28;20040;-84
2021/09/22 09:36:17;;;;;;;65.53;35.85;;;;;;;;;;5000193;28;20417;-85
2021/09/22 09:38:51;;;;;;;59.57;33.83;;;;;;;;;;5016102;28;20036;-84
2021/09/22 09:41:26;;;;;;;57.92;30.35;;;;;;;;;;5014034;28;20393;-84
2021/09/22 09:43:52;;;;;;;50.00;28.35;;;;;;;;;;4998071;28;20515;-85
2021/09/22 09:46:19;;;;;;;51.85;31.10;;;;;;;;;;4997311;28;20022;-85
2021/09/22 09:48:56;;;;;;;59.90;33.92;;;;;;;;;;4999000;28;20038;-85
2021/09/22 09:51:22;;;;;;;60.50;31.30;;;;;;;;;;5019654;28;20022;-85
2021/09/22 09:53:47;;;;;;;54.15;28.85;;;;;;;;;;5001563;28;20036;-84
2021/09/22 09:56:19;;;;;;;49.17;27.95;;;;;;;;;;5016733;28;20045;-85
2021/09/22 09:58:48;;;;;;;49.35;27.25;;;;;;;;;;4998460;28;20026;-85
2021/09/22 10:01:16;;;;;;;47.30;25.27;;;;;;;;;;5015402;28;20068;-85
2021/09/22 10:03:42;;;;;;;46.35;26.73;;;;;;;;;;5014541;28;20493;-85
2021/09/22 10:06:09;;;;;;;46.33;26.20;;;;;;;;;;5016784;28;20033;-85
2021/09/22 10:08:34;;;;;;;45.30;24.70;;;;;;;;;;5016228;28;20026;-85
2021/09/22 10:11:03;;;;;;;46.22;26.73;;;;;;;;;;5010889;28;20511;-85
2021/09/22 10:13:31;;;;;;;45.72;25.92;;;;;;;;;;5001368;28;20036;-86
2021/09/22 10:15:57;;;;;;;40.88;25.02;;;;;;;;;;5000452;28;20026;-85
2021/09/22 10:18:22;;;;;;;42.22;24.73;;;;;;;;;;4999350;28;20492;-85
2021/09/22 10:20:49;;;;;;;43.33;25.27;;;;;;;;;;5016292;28;20022;-85
2021/09/22 10:23:16;;;;;;;44.65;27.25;;;;;;;;;;4998368;28;20025;-84
2021/09/22 10:25:42;;;;;;;42.13;26.10;;;;;;;;;;4998665;28;20018;-85
2021/09/22 10:28:08;;;;;;;52.03;28.38;;;;;;;;;;4998963;28;20036;-85
2021/09/22 10:30:37;;;;;;;45.95;26.83;;;;;;;;;;5017090;28;20026;-85
2021/09/22 10:33:04;;;;;;;48.55;27.30;;;;;;;;;;5019881;28;20022;-85
2021/09/22 10:35:35;;;;;;;43.10;25.10;;;;;;;;;;5017985;28;20026;-85
2021/09/22 10:38:20;;;;;;;41.17;24.13;;;;;;;;;;5025915;28;20029;-85
2021/09/22 10:40:51;;;;;;;41.97;23.30;;;;;;;;;;5018834;28;20030;-85
2021/09/22 10:43:16;;;;;;;43.65;24.80;;;;;;;;;;5018770;28;20026;-86
2021/09/22 10:45:44;;;;;;;40.58;25.88;;;;;;;;;;5017536;28;20049;-85
2021/09/22 10:48:17;;;;;;;40.17;24.73;;;;;;;;;;5018444;28;20026;-85
2021/09/22 10:50:42;;;;;;;46.83;24.50;;;;;;;;;;5000811;28;20032;-85
2021/09/22 10:53:32;;;;;;;46.80;25.33;;;;;;;;;;5018987;28;20459;-85
2021/09/22 10:56:16;;;;;;;43.67;25.92;;;;;;;;;;5029100;28;20275;-85
2021/09/22 10:58:50;;;;;;;49.90;26.77;;;;;;;;;;5031897;28;20029;-85
2021/09/22 11:01:31;;;;;;;41.70;25.70;;;;;;;;;;5022116;28;20493;-85
2021/09/22 11:03:57;;;;;;;39.75;24.48;;;;;;;;;;5020772;28;20374;-85
2021/09/22 11:06:44;;;;;;;39.25;23.25;;;;;;;;;;5020914;28;20061;-86
2021/09/22 11:09:28;;;;;;;45.05;26.20;;;;;;;;;;5020990;28;20036;-86
2021/09/22 11:11:53;;;;;;;47.85;26.88;;;;;;;;;;5002761;28;20026;-86
2021/09/22 11:14:42;;;;;;;43.22;27.65;;;;;;;;;;5030826;28;20106;-85
2021/09/22 11:17:16;;;;;;;50.22;27.92;;;;;;;;;;5022687;28;20018;-85
2021/09/22 11:20:03;;;;;;;41.47;24.85;;;;;;;;;;5018094;28;20049;-85
2021/09/22 11:22:31;;;;;;;38.63;23.67;;;;;;;;;;5001098;28;20076;-85
2021/09/22 11:25:03;;;;;;;40.53;25.20;;;;;;;;;;5000335;28;20548;-86
2021/09/22 11:27:29;;;;;;;44.78;27.00;;;;;;;;;;5019567;28;20089;-86
2021/09/22 11:30:03;;;;;;;39.72;25.27;;;;;;;;;;5022475;28;20493;-86
2021/09/22 11:32:32;;;;;;;42.35;25.23;;;;;;;;;;5004947;28;20042;-86
2021/09/22 11:35:03;;;;;;;41.95;25.65;;;;;;;;;;5002387;28;20022;-84
2021/09/22 11:37:52;;;;;;;42.75;24.58;;;;;;;;;;5020250;28;20026;-84
2021/09/22 11:40:21;;;;;;;37.75;24.50;;;;;;;;;;5009159;28;20038;-84
2021/09/22 11:43:06;;;;;;;42.53;24.80;;;;;;;;;;5016703;28;20040;-85
2021/09/22 11:45:40;;;;;;;43.97;25.73;;;;;;;;;;5018572;28;20485;-84
2021/09/22 11:48:07;;;;;;;44.65;26.45;;;;;;;;;;5013828;28;20054;-84
2021/09/22 11:50:38;;;;;;;39.42;24.67;;;;;;;;;;5019319;28;20145;-84
2021/09/22 11:53:12;;;;;;;41.60;26.45;;;;;;;;;;5001337;28;20084;-84
2021/09/22 11:55:38;;;;;;;42.00;24.88;;;;;;;;;;5021387;28;20018;-84
2021/09/22 11:58:09;;;;;;;40.47;23.83;;;;;;;;;;5003041;28;20068;-84
2021/09/22 12:00:36;;;;;;;44.78;24.45;;;;;;;;;;5021205;28;20029;-83
2021/09/22 12:03:11;;;;;;;41.63;25.05;;;;;;;;;;5008005;28;20025;-82
2021/09/22 12:05:38;;;;;;;37.72;24.15;;;;;;;;;;5018914;28;20112;-83
2021/09/22 12:08:03;;;;;;;45.95;24.45;;;;;;;;;;5024765;28;20017;-84
2021/09/22 12:10:29;;;;;;;44.50;25.45;;;;;;;;;;5040403;28;20025;-85
2021/09/22 12:13:02;;;;;;;42.97;25.45;;;;;;;;;;5038451;28;20400;-84
2021/09/22 12:15:29;;;;;;;41.22;23.92;;;;;;;;;;5023490;28;20035;-84
2021/09/22 12:17:55;;;;;;;41.47;24.77;;;;;;;;;;5043263;28;20025;-83
2021/09/22 12:20:20;;;;;;;45.40;24.27;;;;;;;;;;5029830;28;20381;-84
2021/09/22 12:22:59;;;;;;;41.13;23.77;;;;;;;;;;4999556;28;20049;-84
2021/09/22 12:25:25;;;;;;;49.85;25.90;;;;;;;;;;4998328;28;20504;-84
2021/09/22 12:27:51;;;;;;;44.78;25.88;;;;;;;;;;5016554;28;20037;-83
2021/09/22 12:30:17;;;;;;;41.83;24.70;;;;;;;;;;5017465;28;20057;-84
2021/09/22 12:32:52;;;;;;;43.53;23.85;;;;;;;;;;5025095;28;20042;-83
2021/09/22 12:35:18;;;;;;;37.13;23.00;;;;;;;;;;5020918;28;20038;-84
2021/09/22 12:37:51;;;;;;;38.78;22.50;;;;;;;;;;5000775;28;20018;-86
2021/09/22 12:40:16;;;;;;;35.38;20.85;;;;;;;;;;5018365;28;20034;-83
2021/09/22 12:42:47;;;;;;;33.05;19.00;;;;;;;;;;5019620;28;20022;-84
2021/09/22 12:45:22;;;;;;;29.58;18.88;;;;;;;;;;5016722;28;20053;-84
2021/09/22 12:47:53;;;;;;;40.50;21.25;;;;;;;;;;5017022;28;20034;-83
2021/09/22 12:50:30;;;;;;;32.22;18.75;;;;;;;;;;5015497;28;20037;-84
2021/09/22 12:53:10;;;;;;;32.70;19.27;;;;;;;;;;4997605;28;20509;-84
2021/09/22 12:55:38;;;;;;;31.50;17.77;;;;;;;;;;5007109;28;20603;-83
2021/09/22 12:58:04;;;;;;;28.55;15.48;;;;;;;;;;5014938;28;20026;-84
2021/09/22 13:00:42;;;;;;;27.27;15.48;;;;;;;;;;5036568;28;20033;-83
2021/09/22 13:03:18;;;;;;;25.90;16.35;;;;;;;;;;5021546;28;20100;-84
2021/09/22 13:05:46;;;;;;;27.02;15.05;;;;;;;;;;5017635;28;20048;-85
2021/09/22 13:08:14;;;;;;;26.88;14.95;;;;;;;;;;5020277;28;20022;-84
2021/09/22 13:11:22;;;;;;;27.80;14.65;;;;;;;;;;5000377;28;20128;-85
2021/09/22 13:13:51;;;;;;;28.63;14.93;;;;;;;;;;4956241;29;20031;-85
2021/09/22 13:16:27;;;;;;;23.85;14.27;;;;;;;;;;5009048;28;20036;-85
2021/09/22 13:18:53;;;;;;;24.35;13.52;;;;;;;;;;5017641;28;20022;-85
2021/09/22 13:21:20;;;;;;;28.67;12.10;;;;;;;;;;5000161;28;20057;-85
2021/09/22 13:23:48;;;;;;;22.70;12.50;;;;;;;;;;5017800;28;20101;-85
2021/09/22 13:26:14;;;;;;;24.80;12.52;;;;;;;;;;5025267;28;20052;-86
2021/09/22 13:28:41;;;;;;;22.52;11.85;;;;;;;;;;5015585;28;20025;-85
2021/09/22 13:31:07;;;;;;;23.83;13.70;;;;;;;;;;4999095;28;20026;-84
2021/09/22 13:33:33;;;;;;;24.73;13.45;;;;;;;;;;5019762;28;20097;-85
2021/09/22 13:35:58;;;;;;;21.63;12.57;;;;;;;;;;5003313;28;20029;-85
2021/09/22 13:38:23;;;;;;;24.80;13.73;;;;;;;;;;5016999;28;20375;-84
2021/09/22 13:40:49;;;;;;;27.23;14.45;;;;;;;;;;4998857;28;20112;-84
2021/09/22 13:43:17;;;;;;;27.80;15.23;;;;;;;;;;5018536;28;20033;-85
2021/09/22 13:45:43;;;;;;;26.00;16.10;;;;;;;;;;5017627;28;20025;-84
2021/09/22 13:48:08;;;;;;;24.38;14.95;;;;;;;;;;5017039;28;20030;-84
2021/09/22 13:50:34;;;;;;;21.88;13.82;;;;;;;;;;5016641;28;20026;-85
2021/09/22 13:52:59;;;;;;;30.02;14.75;;;;;;;;;;4998340;28;20029;-83
2021/09/22 13:55:24;;;;;;;25.40;14.80;;;;;;;;;;5017118;28;20044;-85
2021/09/22 13:57:49;;;;;;;26.65;15.88;;;;;;;;;;5016753;28;20034;-84
2021/09/22 14:00:15;;;;;;;21.10;13.30;;;;;;;;;;4998064;28;20026;-85
2021/09/22 14:02:40;;;;;;;23.50;13.70;;;;;;;;;;5026283;28;20005;-85
2021/09/22 14:05:06;;;;;;;21.23;13.70;;;;;;;;;;5023385;28;20026;-84
2021/09/22 14:07:33;;;;;;;26.95;14.05;;;;;;;;;;5021627;28;20025;-85
2021/09/22 14:09:58;;;;;;;25.70;14.07;;;;;;;;;;5023748;28;20053;-85
2021/09/22 14:12:24;;;;;;;27.00;14.07;;;;;;;;;;5020592;28;20034;-85
2021/09/22 14:14:49;;;;;;;28.80;15.25;;;;;;;;;;5025581;28;20024;-86
2021/09/22 14:17:14;;;;;;;27.65;15.07;;;;;;;;;;5022648;28;20064;-85